DAL8990 KDEN-KLAX
Flight info
| Callsign | DAL8990 |
|---|---|
| Flight time | 1h 58m |
| Altitude | 32000 |
| Route | BAYLR6 TEHRU JASSE Q90 DNERO ANJLL4 |
| Aircraft | A319/M-FAA/L |
Departure
| Time | 2026-05-06 02:19 |
|---|---|
| Airport | Denver International Airport (KDEN) |
Arrival
| Time | 2026-05-06 04:18 |
|---|---|
| Airport | Los Angeles International Airport (KLAX) |
| Time | Latitude | Longitude | Altitude | Speed | Heading |
|---|---|---|---|---|---|
| 2026-05-06 01:33 | 39.85810 | -104.67902 | 5386 ft | 0 kts | 359° |
| 2026-05-06 02:06 | 39.85796 | -104.67902 | 5383 ft | 4 kts | 359° |
| 2026-05-06 02:07 | 39.85769 | -104.67903 | 5383 ft | 4 kts | 359° |
| 2026-05-06 02:07 | 39.85742 | -104.67903 | 5384 ft | 4 kts | 360° |
| 2026-05-06 02:07 | 39.85718 | -104.67903 | 5385 ft | 1 kts | 360° |
| 2026-05-06 02:12 | 39.85719 | -104.67905 | 5386 ft | 1 kts | 339° |
| 2026-05-06 02:13 | 39.85728 | -104.67937 | 5384 ft | 5 kts | 273° |
| 2026-05-06 02:13 | 39.85716 | -104.67949 | 5382 ft | 2 kts | 219° |
| 2026-05-06 02:13 | 39.85699 | -104.67967 | 5384 ft | 7 kts | 219° |
| 2026-05-06 02:13 | 39.85629 | -104.68048 | 5383 ft | 12 kts | 231° |
| 2026-05-06 02:14 | 39.85603 | -104.68094 | 5386 ft | 7 kts | 238° |
| 2026-05-06 02:14 | 39.85593 | -104.68170 | 5386 ft | 9 kts | 271° |
| 2026-05-06 02:14 | 39.85598 | -104.68253 | 5385 ft | 11 kts | 274° |
| 2026-05-06 02:14 | 39.85591 | -104.68377 | 5376 ft | 16 kts | 242° |
| 2026-05-06 02:15 | 39.85495 | -104.68402 | 5373 ft | 14 kts | 178° |
| 2026-05-06 02:15 | 39.85404 | -104.68407 | 5374 ft | 13 kts | 181° |
| 2026-05-06 02:15 | 39.85311 | -104.68406 | 5374 ft | 13 kts | 178° |
| 2026-05-06 02:15 | 39.85227 | -104.68414 | 5377 ft | 10 kts | 204° |
| 2026-05-06 02:16 | 39.85206 | -104.68512 | 5371 ft | 15 kts | 274° |
| 2026-05-06 02:16 | 39.85204 | -104.68660 | 5366 ft | 18 kts | 269° |
| 2026-05-06 02:16 | 39.85202 | -104.68837 | 5359 ft | 21 kts | 269° |
| 2026-05-06 02:16 | 39.85199 | -104.69043 | 5351 ft | 24 kts | 269° |
| 2026-05-06 02:17 | 39.85200 | -104.69276 | 5343 ft | 27 kts | 274° |
| 2026-05-06 02:17 | 39.85201 | -104.69525 | 5337 ft | 23 kts | 273° |
| 2026-05-06 02:17 | 39.85211 | -104.69650 | 5334 ft | 7 kts | 301° |
| 2026-05-06 02:17 | 39.85233 | -104.69660 | 5333 ft | 0 kts | 2° |
| 2026-05-06 02:18 | 39.85253 | -104.69659 | 5335 ft | 20 kts | 358° |
| 2026-05-06 02:18 | 39.85640 | -104.69655 | 5341 ft | 88 kts | 0° |
| 2026-05-06 02:18 | 39.86444 | -104.69645 | 5331 ft | 141 kts | 0° |
| 2026-05-06 02:18 | 39.87572 | -104.69623 | 5374 ft | 178 kts | 1° |
| 2026-05-06 02:19 | 39.88300 | -104.69598 | 5787 ft | 173 kts | 1° |
| 2026-05-06 02:19 | 39.89850 | -104.69711 | 6710 ft | 177 kts | 346° |
| 2026-05-06 02:19 | 39.90876 | -104.70625 | 7164 ft | 191 kts | 308° |
| 2026-05-06 02:19 | 39.91255 | -104.72361 | 7356 ft | 216 kts | 263° |
| 2026-05-06 02:20 | 39.89432 | -104.75774 | 7880 ft | 258 kts | 223° |
| 2026-05-06 02:20 | 39.88092 | -104.77410 | 8387 ft | 277 kts | 221° |
| 2026-05-06 02:20 | 39.86628 | -104.79150 | 9229 ft | 283 kts | 220° |
| 2026-05-06 02:21 | 39.85666 | -104.80299 | 9863 ft | 284 kts | 221° |
| 2026-05-06 02:21 | 39.84181 | -104.82093 | 10373 ft | 302 kts | 222° |
| 2026-05-06 02:21 | 39.82087 | -104.84670 | 11131 ft | 317 kts | 224° |
| 2026-05-06 02:21 | 39.81029 | -104.85991 | 11633 ft | 319 kts | 224° |
| 2026-05-06 02:22 | 39.79428 | -104.88005 | 12482 ft | 321 kts | 226° |
| 2026-05-06 02:22 | 39.78017 | -104.90251 | 13348 ft | 320 kts | 239° |
| 2026-05-06 02:22 | 39.77036 | -104.92829 | 14159 ft | 319 kts | 252° |
| 2026-05-06 02:22 | 39.76402 | -104.95598 | 14854 ft | 320 kts | 256° |
| 2026-05-06 02:23 | 39.75790 | -104.98388 | 15565 ft | 322 kts | 255° |
| 2026-05-06 02:23 | 39.75172 | -105.01188 | 16311 ft | 324 kts | 255° |
| 2026-05-06 02:23 | 39.74421 | -105.03967 | 17015 ft | 327 kts | 249° |
| 2026-05-06 02:23 | 39.73528 | -105.06693 | 17724 ft | 328 kts | 249° |
| 2026-05-06 02:24 | 39.72643 | -105.09393 | 18394 ft | 330 kts | 249° |
| 2026-05-06 02:24 | 39.71740 | -105.12147 | 18972 ft | 333 kts | 249° |
| 2026-05-06 02:24 | 39.70824 | -105.14936 | 19532 ft | 336 kts | 249° |
| 2026-05-06 02:24 | 39.69903 | -105.17739 | 20087 ft | 339 kts | 249° |
| 2026-05-06 02:25 | 39.68976 | -105.20570 | 20653 ft | 342 kts | 249° |
| 2026-05-06 02:25 | 39.68042 | -105.23429 | 21191 ft | 346 kts | 249° |
| 2026-05-06 02:25 | 39.67094 | -105.26317 | 21745 ft | 349 kts | 249° |
| 2026-05-06 02:25 | 39.66138 | -105.29225 | 22276 ft | 352 kts | 249° |
| 2026-05-06 02:26 | 39.65165 | -105.32170 | 22775 ft | 357 kts | 248° |
| 2026-05-06 02:26 | 39.64182 | -105.35145 | 23297 ft | 360 kts | 248° |
| 2026-05-06 02:26 | 39.63190 | -105.38149 | 23753 ft | 363 kts | 248° |
| 2026-05-06 02:26 | 39.62203 | -105.41136 | 24189 ft | 366 kts | 248° |
| 2026-05-06 02:27 | 39.61195 | -105.44187 | 24617 ft | 369 kts | 248° |
| 2026-05-06 02:27 | 39.60180 | -105.47262 | 25054 ft | 371 kts | 248° |
| 2026-05-06 02:27 | 39.59162 | -105.50343 | 25437 ft | 373 kts | 248° |
| 2026-05-06 02:27 | 39.58134 | -105.53443 | 25856 ft | 376 kts | 248° |
| 2026-05-06 02:28 | 39.57093 | -105.56565 | 26267 ft | 378 kts | 248° |
| 2026-05-06 02:28 | 39.56044 | -105.59706 | 26676 ft | 380 kts | 248° |
| 2026-05-06 02:28 | 39.55002 | -105.62869 | 27070 ft | 383 kts | 249° |
| 2026-05-06 02:28 | 39.54035 | -105.66100 | 27403 ft | 386 kts | 251° |
| 2026-05-06 02:29 | 39.53130 | -105.69383 | 27781 ft | 389 kts | 252° |
| 2026-05-06 02:29 | 39.52250 | -105.72710 | 28158 ft | 392 kts | 252° |
| 2026-05-06 02:29 | 39.51366 | -105.76062 | 28547 ft | 394 kts | 252° |
| 2026-05-06 02:29 | 39.50463 | -105.79429 | 28881 ft | 397 kts | 252° |
| 2026-05-06 02:30 | 39.49540 | -105.82809 | 29273 ft | 399 kts | 252° |
| 2026-05-06 02:30 | 39.48601 | -105.86199 | 29628 ft | 402 kts | 251° |
| 2026-05-06 02:30 | 39.47648 | -105.89616 | 29974 ft | 404 kts | 251° |
| 2026-05-06 02:30 | 39.46688 | -105.93042 | 30267 ft | 406 kts | 251° |
| 2026-05-06 02:31 | 39.45718 | -105.96494 | 30561 ft | 409 kts | 251° |
| 2026-05-06 02:31 | 39.44745 | -105.99960 | 30837 ft | 411 kts | 252° |
| 2026-05-06 02:31 | 39.43761 | -106.03462 | 31024 ft | 417 kts | 252° |
| 2026-05-06 02:31 | 39.42764 | -106.07005 | 31227 ft | 421 kts | 252° |
| 2026-05-06 02:32 | 39.41764 | -106.10572 | 31481 ft | 423 kts | 252° |
| 2026-05-06 02:32 | 39.40770 | -106.14107 | 31725 ft | 424 kts | 252° |
| 2026-05-06 02:32 | 39.39758 | -106.17686 | 31759 ft | 410 kts | 252° |
| 2026-05-06 02:32 | 39.38805 | -106.21045 | 31758 ft | 398 kts | 252° |
| 2026-05-06 02:33 | 39.37861 | -106.24377 | 31759 ft | 393 kts | 252° |
| 2026-05-06 02:33 | 39.37228 | -106.26618 | 31932 ft | 392 kts | 252° |
| 2026-05-06 02:34 | 39.34122 | -106.37602 | 31954 ft | 394 kts | 252° |
| 2026-05-06 02:34 | 39.32223 | -106.44267 | 31936 ft | 396 kts | 252° |
| 2026-05-06 02:35 | 39.30319 | -106.50945 | 31912 ft | 396 kts | 252° |
| 2026-05-06 02:35 | 39.28414 | -106.57627 | 31873 ft | 396 kts | 252° |
| 2026-05-06 02:36 | 39.26503 | -106.64291 | 31843 ft | 396 kts | 252° |
| 2026-05-06 02:36 | 39.24537 | -106.70922 | 31876 ft | 397 kts | 246° |
| 2026-05-06 02:37 | 39.21474 | -106.76904 | 31894 ft | 402 kts | 236° |
| 2026-05-06 02:37 | 39.18129 | -106.82704 | 31891 ft | 404 kts | 236° |
| 2026-05-06 02:38 | 39.14773 | -106.88539 | 31741 ft | 406 kts | 236° |
| 2026-05-06 02:38 | 39.11399 | -106.94365 | 31735 ft | 406 kts | 236° |
| 2026-05-06 02:39 | 39.08017 | -107.00193 | 31742 ft | 407 kts | 236° |
| 2026-05-06 02:39 | 39.04628 | -107.06019 | 31729 ft | 407 kts | 236° |
| 2026-05-06 02:40 | 39.01227 | -107.11859 | 31725 ft | 409 kts | 236° |
| 2026-05-06 02:40 | 38.97802 | -107.17732 | 31725 ft | 411 kts | 236° |
| 2026-05-06 02:41 | 38.94385 | -107.23582 | 31716 ft | 412 kts | 236° |
| 2026-05-06 02:41 | 38.90928 | -107.29488 | 31723 ft | 413 kts | 236° |
| 2026-05-06 02:42 | 38.87468 | -107.35392 | 31702 ft | 413 kts | 236° |
| 2026-05-06 02:42 | 38.84006 | -107.41291 | 31694 ft | 414 kts | 235° |
| 2026-05-06 02:43 | 38.80541 | -107.47168 | 31690 ft | 416 kts | 235° |
| 2026-05-06 02:43 | 38.77040 | -107.53086 | 31679 ft | 417 kts | 235° |
| 2026-05-06 02:44 | 38.73529 | -107.59022 | 31680 ft | 418 kts | 235° |
| 2026-05-06 02:44 | 38.70016 | -107.64981 | 31669 ft | 419 kts | 235° |
| 2026-05-06 02:45 | 38.66497 | -107.70928 | 31655 ft | 419 kts | 234° |
| 2026-05-06 02:45 | 38.62964 | -107.76867 | 31640 ft | 419 kts | 234° |
| 2026-05-06 02:46 | 38.59424 | -107.82803 | 31831 ft | 421 kts | 234° |
| 2026-05-06 02:46 | 38.55870 | -107.88762 | 31839 ft | 422 kts | 234° |
| 2026-05-06 02:47 | 38.52314 | -107.94729 | 31842 ft | 422 kts | 234° |
| 2026-05-06 02:47 | 38.48747 | -108.00684 | 31839 ft | 422 kts | 234° |
| 2026-05-06 02:48 | 38.45178 | -108.06641 | 31803 ft | 422 kts | 234° |
| 2026-05-06 02:48 | 38.41610 | -108.12586 | 31771 ft | 422 kts | 234° |
| 2026-05-06 02:49 | 38.38032 | -108.18524 | 31740 ft | 422 kts | 234° |
| 2026-05-06 02:49 | 38.34479 | -108.24424 | 31677 ft | 422 kts | 234° |
| 2026-05-06 02:50 | 38.30900 | -108.30358 | 31680 ft | 422 kts | 234° |
| 2026-05-06 02:50 | 38.27318 | -108.36271 | 31683 ft | 421 kts | 234° |
| 2026-05-06 02:51 | 38.23734 | -108.42177 | 31688 ft | 421 kts | 234° |
| 2026-05-06 02:51 | 38.20172 | -108.48046 | 31666 ft | 422 kts | 234° |
| 2026-05-06 02:52 | 38.16569 | -108.53981 | 31669 ft | 423 kts | 234° |
| 2026-05-06 02:52 | 38.12956 | -108.59904 | 31664 ft | 424 kts | 234° |
| 2026-05-06 02:53 | 38.09358 | -108.65790 | 31670 ft | 425 kts | 233° |
| 2026-05-06 02:53 | 38.05723 | -108.71729 | 31675 ft | 425 kts | 234° |
| 2026-05-06 02:54 | 38.02107 | -108.77640 | 31693 ft | 424 kts | 234° |
| 2026-05-06 02:54 | 37.98492 | -108.83548 | 31679 ft | 424 kts | 233° |
| 2026-05-06 02:55 | 37.94853 | -108.89464 | 31676 ft | 425 kts | 233° |
| 2026-05-06 02:55 | 37.91200 | -108.95375 | 31679 ft | 426 kts | 233° |
| 2026-05-06 02:56 | 37.87549 | -109.01291 | 31684 ft | 426 kts | 233° |
| 2026-05-06 02:56 | 37.83893 | -109.07208 | 31685 ft | 427 kts | 233° |
| 2026-05-06 02:57 | 37.80254 | -109.13078 | 31689 ft | 427 kts | 233° |
| 2026-05-06 02:57 | 37.76580 | -109.19006 | 31722 ft | 429 kts | 233° |
| 2026-05-06 02:58 | 37.72896 | -109.24943 | 31780 ft | 429 kts | 233° |
| 2026-05-06 02:58 | 37.69212 | -109.30855 | 31842 ft | 427 kts | 233° |
| 2026-05-06 02:59 | 37.65536 | -109.36735 | 31881 ft | 426 kts | 233° |
| 2026-05-06 02:59 | 37.61869 | -109.42602 | 31897 ft | 425 kts | 233° |
| 2026-05-06 03:00 | 37.58232 | -109.48420 | 31878 ft | 425 kts | 233° |
| 2026-05-06 03:00 | 37.54555 | -109.54286 | 31871 ft | 427 kts | 233° |
| 2026-05-06 03:01 | 37.50854 | -109.60181 | 31852 ft | 428 kts | 233° |
| 2026-05-06 03:01 | 37.47170 | -109.66037 | 31817 ft | 429 kts | 233° |
| 2026-05-06 03:01 | 37.45314 | -109.68981 | 31689 ft | 429 kts | 232° |
| 2026-05-06 03:02 | 37.43453 | -109.71926 | 31691 ft | 429 kts | 233° |
| 2026-05-06 03:02 | 37.39752 | -109.77773 | 31739 ft | 425 kts | 233° |
| 2026-05-06 03:03 | 37.36082 | -109.83571 | 31711 ft | 423 kts | 232° |
| 2026-05-06 03:03 | 37.32413 | -109.89360 | 31692 ft | 424 kts | 233° |
| 2026-05-06 03:04 | 37.28737 | -109.95156 | 31688 ft | 424 kts | 232° |
| 2026-05-06 03:04 | 37.25666 | -109.99980 | 31694 ft | 425 kts | 233° |
| 2026-05-06 03:05 | 37.21368 | -110.06729 | 31698 ft | 425 kts | 232° |
| 2026-05-06 03:05 | 37.18279 | -110.11572 | 31709 ft | 425 kts | 232° |
| 2026-05-06 03:06 | 37.14587 | -110.17342 | 31695 ft | 427 kts | 232° |
| 2026-05-06 03:06 | 37.10855 | -110.23166 | 31721 ft | 428 kts | 233° |
| 2026-05-06 03:07 | 37.07131 | -110.28964 | 31755 ft | 426 kts | 233° |
| 2026-05-06 03:07 | 37.03427 | -110.34739 | 31775 ft | 424 kts | 233° |
| 2026-05-06 03:08 | 36.99736 | -110.40480 | 31763 ft | 423 kts | 233° |
| 2026-05-06 03:08 | 36.96069 | -110.46169 | 31750 ft | 422 kts | 233° |
| 2026-05-06 03:09 | 36.92367 | -110.51896 | 31779 ft | 429 kts | 232° |
| 2026-05-06 03:09 | 36.88607 | -110.57717 | 31781 ft | 430 kts | 232° |
| 2026-05-06 03:10 | 36.84839 | -110.63529 | 31783 ft | 431 kts | 232° |
| 2026-05-06 03:10 | 36.81062 | -110.69338 | 31787 ft | 430 kts | 232° |
| 2026-05-06 03:11 | 36.77347 | -110.75043 | 31780 ft | 420 kts | 232° |
| 2026-05-06 03:11 | 36.73677 | -110.80670 | 31772 ft | 417 kts | 232° |
| 2026-05-06 03:12 | 36.69982 | -110.86340 | 31781 ft | 424 kts | 231° |
| 2026-05-06 03:12 | 36.66244 | -110.92053 | 31773 ft | 426 kts | 232° |
| 2026-05-06 03:13 | 36.62488 | -110.97786 | 31776 ft | 427 kts | 232° |
| 2026-05-06 03:13 | 36.58758 | -111.03468 | 31772 ft | 426 kts | 232° |
| 2026-05-06 03:14 | 36.55015 | -111.09166 | 31768 ft | 425 kts | 232° |
| 2026-05-06 03:14 | 36.51285 | -111.14852 | 31761 ft | 425 kts | 231° |
| 2026-05-06 03:15 | 36.47536 | -111.20546 | 31755 ft | 426 kts | 231° |
| 2026-05-06 03:15 | 36.43776 | -111.26244 | 31757 ft | 427 kts | 231° |
| 2026-05-06 03:16 | 36.39999 | -111.31955 | 31771 ft | 428 kts | 231° |
| 2026-05-06 03:16 | 36.36206 | -111.37671 | 31773 ft | 428 kts | 231° |
| 2026-05-06 03:17 | 36.32440 | -111.43339 | 31786 ft | 428 kts | 231° |
| 2026-05-06 03:17 | 36.28662 | -111.49017 | 31802 ft | 428 kts | 231° |
| 2026-05-06 03:18 | 36.24863 | -111.54714 | 31827 ft | 428 kts | 231° |
| 2026-05-06 03:18 | 36.21063 | -111.60411 | 31829 ft | 428 kts | 231° |
| 2026-05-06 03:19 | 36.17261 | -111.66110 | 31829 ft | 428 kts | 231° |
| 2026-05-06 03:19 | 36.13492 | -111.71743 | 31885 ft | 425 kts | 231° |
| 2026-05-06 03:20 | 36.07938 | -111.80162 | 31952 ft | 420 kts | 237° |
| 2026-05-06 03:20 | 36.05397 | -111.86617 | 31947 ft | 418 kts | 250° |
| 2026-05-06 03:21 | 36.03275 | -111.93319 | 31980 ft | 419 kts | 250° |
| 2026-05-06 03:21 | 36.01125 | -112.00021 | 32008 ft | 420 kts | 250° |
| 2026-05-06 03:22 | 35.98964 | -112.06743 | 32031 ft | 421 kts | 250° |
| 2026-05-06 03:22 | 35.96815 | -112.13431 | 32028 ft | 421 kts | 250° |
| 2026-05-06 03:23 | 35.94658 | -112.20127 | 32023 ft | 423 kts | 249° |
| 2026-05-06 03:23 | 35.92474 | -112.26881 | 32021 ft | 424 kts | 249° |
| 2026-05-06 03:24 | 35.90278 | -112.33663 | 32002 ft | 425 kts | 250° |
| 2026-05-06 03:24 | 35.88083 | -112.40439 | 31985 ft | 426 kts | 249° |
| 2026-05-06 03:25 | 35.85882 | -112.47228 | 31938 ft | 427 kts | 250° |
| 2026-05-06 03:25 | 35.83677 | -112.54001 | 31925 ft | 428 kts | 250° |
| 2026-05-06 03:26 | 35.81449 | -112.60820 | 31919 ft | 430 kts | 249° |
| 2026-05-06 03:26 | 35.79207 | -112.67660 | 31923 ft | 431 kts | 249° |
| 2026-05-06 03:27 | 35.76970 | -112.74482 | 31920 ft | 431 kts | 249° |
| 2026-05-06 03:27 | 35.74731 | -112.81292 | 31911 ft | 433 kts | 249° |
| 2026-05-06 03:28 | 35.72460 | -112.88176 | 31905 ft | 435 kts | 249° |
| 2026-05-06 03:28 | 35.70178 | -112.95091 | 31908 ft | 437 kts | 249° |
| 2026-05-06 03:29 | 35.67884 | -113.02036 | 31898 ft | 438 kts | 249° |
| 2026-05-06 03:29 | 35.65581 | -113.08967 | 31941 ft | 437 kts | 249° |
| 2026-05-06 03:30 | 35.63273 | -113.15899 | 31932 ft | 434 kts | 249° |
| 2026-05-06 03:30 | 35.61009 | -113.22691 | 31921 ft | 434 kts | 249° |
| 2026-05-06 03:31 | 35.58720 | -113.29550 | 31899 ft | 433 kts | 249° |
| 2026-05-06 03:31 | 35.56426 | -113.36390 | 31893 ft | 433 kts | 249° |
| 2026-05-06 03:32 | 35.54128 | -113.43226 | 31883 ft | 433 kts | 249° |
| 2026-05-06 03:32 | 35.51859 | -113.49982 | 31858 ft | 434 kts | 249° |
| 2026-05-06 03:33 | 35.49550 | -113.56833 | 31856 ft | 435 kts | 249° |
| 2026-05-06 03:33 | 35.47239 | -113.63688 | 31859 ft | 435 kts | 249° |
| 2026-05-06 03:34 | 35.44920 | -113.70551 | 31882 ft | 436 kts | 249° |
| 2026-05-06 03:34 | 35.42590 | -113.77409 | 31891 ft | 436 kts | 249° |
| 2026-05-06 03:35 | 35.40243 | -113.84295 | 31912 ft | 439 kts | 249° |
| 2026-05-06 03:35 | 35.37876 | -113.91216 | 31934 ft | 440 kts | 249° |
| 2026-05-06 03:36 | 35.35521 | -113.98119 | 31948 ft | 442 kts | 249° |
| 2026-05-06 03:36 | 35.33143 | -114.05066 | 31944 ft | 442 kts | 249° |
| 2026-05-06 03:37 | 35.30762 | -114.12011 | 31919 ft | 443 kts | 249° |
| 2026-05-06 03:37 | 35.28365 | -114.18979 | 31897 ft | 444 kts | 249° |
| 2026-05-06 03:38 | 35.25969 | -114.25957 | 31876 ft | 445 kts | 249° |
| 2026-05-06 03:38 | 35.23555 | -114.32933 | 31852 ft | 445 kts | 249° |
| 2026-05-06 03:39 | 35.21125 | -114.39909 | 31830 ft | 446 kts | 249° |
| 2026-05-06 03:39 | 35.18708 | -114.46857 | 31828 ft | 447 kts | 249° |
| 2026-05-06 03:40 | 35.16281 | -114.53864 | 31834 ft | 448 kts | 249° |
| 2026-05-06 03:40 | 35.13837 | -114.60887 | 31862 ft | 449 kts | 249° |
| 2026-05-06 03:41 | 35.11387 | -114.67909 | 31872 ft | 450 kts | 249° |
| 2026-05-06 03:41 | 35.08938 | -114.74947 | 31870 ft | 450 kts | 249° |
| 2026-05-06 03:42 | 35.06485 | -114.81975 | 31881 ft | 450 kts | 249° |
| 2026-05-06 03:42 | 35.04033 | -114.88987 | 31913 ft | 447 kts | 248° |
| 2026-05-06 03:43 | 35.01401 | -114.95816 | 31906 ft | 443 kts | 244° |
| 2026-05-06 03:43 | 34.98472 | -115.02416 | 31892 ft | 442 kts | 242° |
| 2026-05-06 03:44 | 34.95508 | -115.08987 | 31860 ft | 442 kts | 243° |
| 2026-05-06 03:44 | 34.92607 | -115.15589 | 31865 ft | 442 kts | 243° |
| 2026-05-06 03:45 | 34.89751 | -115.22183 | 31861 ft | 443 kts | 243° |
| 2026-05-06 03:45 | 34.86869 | -115.28823 | 31852 ft | 443 kts | 243° |
| 2026-05-06 03:46 | 34.83971 | -115.35461 | 31847 ft | 444 kts | 243° |
| 2026-05-06 03:46 | 34.81065 | -115.42093 | 31844 ft | 445 kts | 243° |
| 2026-05-06 03:47 | 34.78200 | -115.48773 | 31845 ft | 445 kts | 246° |
| 2026-05-06 03:47 | 34.75658 | -115.55645 | 31844 ft | 445 kts | 249° |
| 2026-05-06 03:48 | 34.73231 | -115.62568 | 31851 ft | 445 kts | 248° |
| 2026-05-06 03:48 | 34.70741 | -115.69462 | 31844 ft | 446 kts | 248° |
| 2026-05-06 03:49 | 34.68192 | -115.76328 | 31711 ft | 445 kts | 247° |
| 2026-05-06 03:49 | 34.66927 | -115.79706 | 31537 ft | 445 kts | 247° |
| 2026-05-06 03:49 | 34.65648 | -115.83130 | 31358 ft | 446 kts | 247° |
| 2026-05-06 03:50 | 34.64368 | -115.86566 | 31187 ft | 447 kts | 248° |
| 2026-05-06 03:50 | 34.63087 | -115.90018 | 31020 ft | 448 kts | 248° |
| 2026-05-06 03:50 | 34.62242 | -115.92305 | 30901 ft | 448 kts | 248° |
| 2026-05-06 03:50 | 34.60971 | -115.95759 | 30711 ft | 449 kts | 248° |
| 2026-05-06 03:51 | 34.59701 | -115.99214 | 30544 ft | 452 kts | 248° |
| 2026-05-06 03:51 | 34.58445 | -116.02630 | 30390 ft | 454 kts | 248° |
| 2026-05-06 03:51 | 34.57209 | -116.05987 | 30231 ft | 455 kts | 248° |
| 2026-05-06 03:51 | 34.55915 | -116.09495 | 30062 ft | 456 kts | 248° |
| 2026-05-06 03:52 | 34.54616 | -116.13005 | 29884 ft | 457 kts | 248° |
| 2026-05-06 03:52 | 34.53313 | -116.16522 | 29690 ft | 456 kts | 248° |
| 2026-05-06 03:52 | 34.52015 | -116.20013 | 29524 ft | 449 kts | 248° |
| 2026-05-06 03:52 | 34.50742 | -116.23433 | 29321 ft | 441 kts | 248° |
| 2026-05-06 03:53 | 34.49490 | -116.26794 | 29124 ft | 438 kts | 248° |
| 2026-05-06 03:53 | 34.48238 | -116.30155 | 28929 ft | 437 kts | 248° |
| 2026-05-06 03:53 | 34.46995 | -116.33500 | 28644 ft | 435 kts | 248° |
| 2026-05-06 03:53 | 34.45759 | -116.36828 | 28312 ft | 431 kts | 248° |
| 2026-05-06 03:54 | 34.44529 | -116.40131 | 27960 ft | 428 kts | 248° |
| 2026-05-06 03:54 | 34.43304 | -116.43404 | 27521 ft | 425 kts | 247° |
| 2026-05-06 03:54 | 34.42083 | -116.46660 | 27106 ft | 423 kts | 247° |
| 2026-05-06 03:54 | 34.40856 | -116.49879 | 26694 ft | 419 kts | 246° |
| 2026-05-06 03:55 | 34.39598 | -116.53007 | 26314 ft | 416 kts | 245° |
| 2026-05-06 03:55 | 34.38298 | -116.56126 | 25912 ft | 413 kts | 244° |
| 2026-05-06 03:55 | 34.36994 | -116.59210 | 25508 ft | 410 kts | 244° |
| 2026-05-06 03:55 | 34.35712 | -116.62244 | 25122 ft | 406 kts | 244° |
| 2026-05-06 03:56 | 34.34426 | -116.65308 | 24749 ft | 403 kts | 244° |
| 2026-05-06 03:56 | 34.33175 | -116.68320 | 24367 ft | 399 kts | 245° |
| 2026-05-06 03:56 | 34.31958 | -116.71314 | 23992 ft | 395 kts | 245° |
| 2026-05-06 03:56 | 34.30787 | -116.74244 | 23628 ft | 391 kts | 245° |
| 2026-05-06 03:57 | 34.29609 | -116.77212 | 23222 ft | 387 kts | 246° |
| 2026-05-06 03:57 | 34.28447 | -116.80133 | 22790 ft | 383 kts | 245° |
| 2026-05-06 03:57 | 34.27291 | -116.83018 | 22349 ft | 380 kts | 245° |
| 2026-05-06 03:57 | 34.26152 | -116.85837 | 21929 ft | 376 kts | 245° |
| 2026-05-06 03:58 | 34.24989 | -116.88706 | 21513 ft | 373 kts | 245° |
| 2026-05-06 03:58 | 34.23848 | -116.91516 | 21098 ft | 370 kts | 245° |
| 2026-05-06 03:58 | 34.22719 | -116.94296 | 20694 ft | 367 kts | 245° |
| 2026-05-06 03:58 | 34.21603 | -116.97055 | 20290 ft | 365 kts | 246° |
| 2026-05-06 03:59 | 34.20680 | -116.99890 | 19904 ft | 360 kts | 255° |
| 2026-05-06 03:59 | 34.19919 | -117.02762 | 19513 ft | 357 kts | 254° |
| 2026-05-06 03:59 | 34.19154 | -117.05602 | 19123 ft | 354 kts | 254° |
| 2026-05-06 03:59 | 34.18388 | -117.08418 | 18741 ft | 351 kts | 254° |
| 2026-05-06 04:00 | 34.17627 | -117.11203 | 18363 ft | 348 kts | 254° |
| 2026-05-06 04:00 | 34.16880 | -117.13933 | 17957 ft | 346 kts | 254° |
| 2026-05-06 04:00 | 34.16129 | -117.16684 | 17529 ft | 344 kts | 254° |
| 2026-05-06 04:00 | 34.15383 | -117.19407 | 17163 ft | 342 kts | 253° |
| 2026-05-06 04:01 | 34.14637 | -117.22127 | 16751 ft | 341 kts | 253° |
| 2026-05-06 04:01 | 34.13893 | -117.24841 | 16340 ft | 339 kts | 253° |
| 2026-05-06 04:01 | 34.13153 | -117.27537 | 15935 ft | 338 kts | 253° |
| 2026-05-06 04:01 | 34.12411 | -117.30228 | 15532 ft | 337 kts | 253° |
| 2026-05-06 04:02 | 34.11669 | -117.32903 | 15144 ft | 336 kts | 253° |
| 2026-05-06 04:02 | 34.10969 | -117.35429 | 14837 ft | 332 kts | 253° |
| 2026-05-06 04:02 | 34.10242 | -117.38072 | 14521 ft | 331 kts | 254° |
| 2026-05-06 04:02 | 34.09556 | -117.40717 | 14207 ft | 330 kts | 255° |
| 2026-05-06 04:03 | 34.09001 | -117.42945 | 13949 ft | 328 kts | 255° |
| 2026-05-06 04:03 | 34.08355 | -117.45585 | 13615 ft | 327 kts | 255° |
| 2026-05-06 04:03 | 34.07714 | -117.48199 | 13276 ft | 323 kts | 255° |
| 2026-05-06 04:03 | 34.07169 | -117.50762 | 12943 ft | 319 kts | 262° |
| 2026-05-06 04:04 | 34.06797 | -117.53358 | 12611 ft | 315 kts | 262° |
| 2026-05-06 04:04 | 34.06434 | -117.55870 | 12288 ft | 313 kts | 262° |
| 2026-05-06 04:04 | 34.06090 | -117.58228 | 11991 ft | 310 kts | 262° |
| 2026-05-06 04:04 | 34.05725 | -117.60716 | 11676 ft | 308 kts | 262° |
| 2026-05-06 04:05 | 34.05482 | -117.62363 | 11427 ft | 308 kts | 262° |
| 2026-05-06 04:05 | 34.05149 | -117.64603 | 11106 ft | 307 kts | 262° |
| 2026-05-06 04:05 | 34.04772 | -117.67131 | 10740 ft | 306 kts | 262° |
| 2026-05-06 04:05 | 34.04413 | -117.69568 | 10390 ft | 305 kts | 262° |
| 2026-05-06 04:06 | 34.04300 | -117.70336 | 10281 ft | 304 kts | 262° |
| 2026-05-06 04:06 | 34.03963 | -117.72612 | 9971 ft | 303 kts | 261° |
| 2026-05-06 04:06 | 34.03729 | -117.74190 | 9710 ft | 301 kts | 262° |
| 2026-05-06 04:06 | 34.03426 | -117.76327 | 9365 ft | 298 kts | 262° |
| 2026-05-06 04:07 | 34.03116 | -117.78432 | 9080 ft | 288 kts | 261° |
| 2026-05-06 04:07 | 34.02766 | -117.80746 | 8796 ft | 274 kts | 261° |
| 2026-05-06 04:07 | 34.02482 | -117.82613 | 8558 ft | 263 kts | 261° |
| 2026-05-06 04:07 | 34.02160 | -117.84732 | 8274 ft | 250 kts | 261° |
| 2026-05-06 04:08 | 34.01855 | -117.86754 | 8001 ft | 240 kts | 262° |
| 2026-05-06 04:08 | 34.01564 | -117.88696 | 7724 ft | 231 kts | 262° |
| 2026-05-06 04:08 | 34.01282 | -117.90572 | 7432 ft | 224 kts | 262° |
| 2026-05-06 04:08 | 34.01010 | -117.92386 | 7114 ft | 216 kts | 261° |
| 2026-05-06 04:09 | 34.00748 | -117.94134 | 6843 ft | 209 kts | 262° |
| 2026-05-06 04:09 | 34.00493 | -117.95838 | 6555 ft | 205 kts | 261° |
| 2026-05-06 04:09 | 34.00245 | -117.97482 | 6278 ft | 202 kts | 261° |
| 2026-05-06 04:09 | 34.00017 | -117.99012 | 6045 ft | 201 kts | 261° |
| 2026-05-06 04:10 | 33.99768 | -118.00660 | 5784 ft | 200 kts | 261° |
| 2026-05-06 04:10 | 33.99520 | -118.02304 | 5535 ft | 198 kts | 261° |
| 2026-05-06 04:10 | 33.99228 | -118.03892 | 5272 ft | 191 kts | 251° |
| 2026-05-06 04:10 | 33.98814 | -118.05399 | 5024 ft | 188 kts | 258° |
| 2026-05-06 04:11 | 33.98584 | -118.06943 | 4771 ft | 188 kts | 262° |
| 2026-05-06 04:11 | 33.98408 | -118.08508 | 4508 ft | 189 kts | 263° |
| 2026-05-06 04:11 | 33.98247 | -118.10077 | 4253 ft | 188 kts | 263° |
| 2026-05-06 04:11 | 33.98091 | -118.11633 | 3998 ft | 186 kts | 263° |
| 2026-05-06 04:12 | 33.97936 | -118.13182 | 3761 ft | 186 kts | 263° |
| 2026-05-06 04:12 | 33.97782 | -118.14723 | 3509 ft | 185 kts | 263° |
| 2026-05-06 04:12 | 33.97629 | -118.16256 | 3269 ft | 183 kts | 263° |
| 2026-05-06 04:12 | 33.97477 | -118.17774 | 3058 ft | 182 kts | 263° |
| 2026-05-06 04:13 | 33.97324 | -118.19292 | 2841 ft | 183 kts | 263° |
| 2026-05-06 04:13 | 33.97172 | -118.20809 | 2596 ft | 183 kts | 263° |
| 2026-05-06 04:13 | 33.97020 | -118.22323 | 2350 ft | 182 kts | 263° |
| 2026-05-06 04:13 | 33.96871 | -118.23806 | 2233 ft | 179 kts | 262° |
| 2026-05-06 04:14 | 33.96727 | -118.25237 | 2222 ft | 164 kts | 262° |
| 2026-05-06 04:14 | 33.96595 | -118.26544 | 2219 ft | 150 kts | 262° |
| 2026-05-06 04:14 | 33.96472 | -118.27760 | 2129 ft | 140 kts | 262° |
| 2026-05-06 04:14 | 33.96360 | -118.28870 | 2002 ft | 133 kts | 262° |
| 2026-05-06 04:15 | 33.96249 | -118.29965 | 1842 ft | 131 kts | 262° |
| 2026-05-06 04:15 | 33.96139 | -118.31055 | 1672 ft | 132 kts | 262° |
| 2026-05-06 04:15 | 33.96028 | -118.32145 | 1501 ft | 130 kts | 262° |
| 2026-05-06 04:15 | 33.95920 | -118.33212 | 1329 ft | 127 kts | 261° |
| 2026-05-06 04:16 | 33.95812 | -118.34275 | 1155 ft | 129 kts | 263° |
| 2026-05-06 04:16 | 33.95704 | -118.35338 | 979 ft | 127 kts | 261° |
| 2026-05-06 04:16 | 33.95599 | -118.36373 | 805 ft | 129 kts | 262° |
| 2026-05-06 04:16 | 33.95489 | -118.37457 | 639 ft | 125 kts | 263° |
| 2026-05-06 04:17 | 33.95389 | -118.38432 | 469 ft | 127 kts | 262° |
| 2026-05-06 04:17 | 33.95297 | -118.39260 | 337 ft | 127 kts | 259° |
| 2026-05-06 04:17 | 33.95195 | -118.40291 | 161 ft | 125 kts | 262° |
| 2026-05-06 04:17 | 33.95111 | -118.41144 | 125 ft | 100 kts | 266° |
| 2026-05-06 04:18 | 33.95045 | -118.41697 | 124 ft | 33 kts | 243° |
| 2026-05-06 04:18 | 33.94993 | -118.41826 | 126 ft | 14 kts | 243° |
| 2026-05-06 04:18 | 33.94946 | -118.41911 | 123 ft | 12 kts | 234° |
| 2026-05-06 04:18 | 33.94922 | -118.41952 | 126 ft | 0 kts | 234° |
| 2026-05-06 04:23 | 33.94920 | -118.41954 | 126 ft | 2 kts | 234° |
| 2026-05-06 04:23 | 33.94885 | -118.42014 | 124 ft | 15 kts | 234° |
| 2026-05-06 04:23 | 33.94819 | -118.42119 | 125 ft | 18 kts | 233° |
| 2026-05-06 04:23 | 33.94743 | -118.42237 | 123 ft | 18 kts | 221° |
| 2026-05-06 04:24 | 33.94693 | -118.42187 | 124 ft | 11 kts | 85° |
| 2026-05-06 04:24 | 33.94700 | -118.42087 | 125 ft | 15 kts | 85° |
| 2026-05-06 04:24 | 33.94710 | -118.41955 | 126 ft | 16 kts | 83° |
| 2026-05-06 04:24 | 33.94726 | -118.41818 | 126 ft | 19 kts | 83° |
| 2026-05-06 04:25 | 33.94741 | -118.41661 | 126 ft | 19 kts | 83° |
| 2026-05-06 04:25 | 33.94757 | -118.41500 | 126 ft | 20 kts | 84° |
| 2026-05-06 04:25 | 33.94789 | -118.41339 | 126 ft | 20 kts | 80° |
| 2026-05-06 04:25 | 33.94806 | -118.41174 | 123 ft | 20 kts | 83° |
| 2026-05-06 04:26 | 33.94824 | -118.41005 | 126 ft | 21 kts | 83° |
| 2026-05-06 04:26 | 33.94773 | -118.40883 | 121 ft | 14 kts | 175° |
| 2026-05-06 04:26 | 33.94723 | -118.40958 | 125 ft | 11 kts | 225° |
| 2026-05-06 04:26 | 33.94690 | -118.40987 | 125 ft | 0 kts | 218° |
| 2026-05-06 04:27 | 33.94687 | -118.40991 | 123 ft | 0 kts | 219° |